Time;durP1;ratioP1;P1;durP2;ratioP2;P2;SDS_P1;SDS_P2;PMS_P1;PMS_P2;Temp;Humidity;BMP_temperature;BMP_pressure;BME280_temperature;BME280_humidity;BME280_pressure;Samples;Min_cycle;Max_cycle;Signal;HPM_P1;HPM_P2
2021/11/27 00:01:34;;;;;;;12.57;8.33;;;;;;;;;;5101067;28;20471;-75
2021/11/27 00:04:02;;;;;;;14.67;8.80;;;;;;;;;;5100899;28;20443;-75
2021/11/27 00:06:31;;;;;;;14.83;8.43;;;;;;;;;;5100098;28;20513;-75
2021/11/27 00:08:59;;;;;;;16.27;8.27;;;;;;;;;;5099204;28;20516;-75
2021/11/27 00:11:27;;;;;;;14.80;8.20;;;;;;;;;;5099114;28;20986;-74
2021/11/27 00:13:57;;;;;;;14.23;8.67;;;;;;;;;;5098993;28;20510;-75
2021/11/27 00:16:25;;;;;;;14.60;8.20;;;;;;;;;;5098904;28;21000;-75
2021/11/27 00:18:53;;;;;;;12.83;8.27;;;;;;;;;;5098783;28;20493;-75
2021/11/27 00:21:21;;;;;;;15.17;8.47;;;;;;;;;;5098614;28;20450;-74
2021/11/27 00:23:50;;;;;;;15.27;8.40;;;;;;;;;;5100425;28;20443;-75
2021/11/27 00:26:19;;;;;;;13.57;7.87;;;;;;;;;;5100970;28;20483;-75
2021/11/27 00:28:50;;;;;;;14.40;8.13;;;;;;;;;;5100325;28;20467;-75
2021/11/27 00:31:23;;;;;;;16.77;9.77;;;;;;;;;;5100498;28;20482;-75
2021/11/27 00:33:51;;;;;;;18.03;9.10;;;;;;;;;;5100441;28;20508;-75
2021/11/27 00:36:19;;;;;;;14.20;9.10;;;;;;;;;;5099989;28;20855;-74
2021/11/27 00:38:51;;;;;;;16.13;8.70;;;;;;;;;;5088682;28;20471;-75
2021/11/27 00:41:19;;;;;;;16.17;9.23;;;;;;;;;;5100387;28;20451;-75
2021/11/27 00:43:47;;;;;;;14.20;8.30;;;;;;;;;;5100418;28;20839;-75
2021/11/27 00:46:16;;;;;;;17.33;9.70;;;;;;;;;;5100253;28;20535;-75
2021/11/27 00:48:46;;;;;;;18.43;9.77;;;;;;;;;;5100426;28;20460;-75
2021/11/27 00:51:17;;;;;;;14.03;8.77;;;;;;;;;;5099935;28;20444;-75
2021/11/27 00:53:45;;;;;;;21.03;9.97;;;;;;;;;;5100398;28;20951;-75
2021/11/27 00:56:14;;;;;;;18.17;9.20;;;;;;;;;;5099971;28;20466;-75
2021/11/27 00:58:42;;;;;;;16.17;9.37;;;;;;;;;;5099942;28;21042;-75
2021/11/27 01:01:12;;;;;;;15.47;9.27;;;;;;;;;;5099908;28;20447;-75
2021/11/27 01:03:42;;;;;;;12.30;8.53;;;;;;;;;;5100258;28;20439;-75
2021/11/27 01:06:12;;;;;;;15.63;8.83;;;;;;;;;;5098278;28;20448;-74
2021/11/27 01:08:42;;;;;;;14.07;8.60;;;;;;;;;;5099916;28;20459;-75
2021/11/27 01:11:11;;;;;;;16.30;8.83;;;;;;;;;;5099926;28;20454;-74
2021/11/27 01:13:42;;;;;;;13.87;7.53;;;;;;;;;;5099698;28;20845;-75
2021/11/27 01:16:10;;;;;;;11.50;8.17;;;;;;;;;;5099916;28;20885;-75
2021/11/27 01:18:39;;;;;;;11.73;7.50;;;;;;;;;;5099388;28;20456;-74
2021/11/27 01:21:09;;;;;;;12.10;7.67;;;;;;;;;;5098872;28;20513;-74
2021/11/27 01:23:40;;;;;;;14.10;7.47;;;;;;;;;;5099831;28;20447;-75
2021/11/27 01:26:08;;;;;;;11.10;7.10;;;;;;;;;;5100033;28;20927;-75
2021/11/27 01:28:36;;;;;;;12.33;6.80;;;;;;;;;;5099431;28;20486;-75
2021/11/27 01:31:05;;;;;;;12.40;6.90;;;;;;;;;;5099411;28;20801;-75
2021/11/27 01:33:34;;;;;;;11.23;7.80;;;;;;;;;;5099341;28;20958;-75
2021/11/27 01:36:03;;;;;;;11.20;6.93;;;;;;;;;;5099225;28;20493;-75
2021/11/27 01:38:32;;;;;;;9.63;7.07;;;;;;;;;;5087222;28;20468;-75
2021/11/27 01:41:02;;;;;;;12.53;7.17;;;;;;;;;;5099172;28;20939;-75
2021/11/27 01:43:33;;;;;;;10.20;6.50;;;;;;;;;;5098950;28;20479;-75
2021/11/27 01:46:01;;;;;;;12.40;7.43;;;;;;;;;;5099269;28;20446;-74
2021/11/27 01:48:29;;;;;;;12.53;6.73;;;;;;;;;;5098611;28;20484;-75
2021/11/27 01:50:58;;;;;;;14.47;6.50;;;;;;;;;;5098596;28;20439;-75
2021/11/27 01:53:29;;;;;;;11.80;6.33;;;;;;;;;;5098684;28;20447;-75
2021/11/27 01:56:00;;;;;;;9.50;6.30;;;;;;;;;;5098648;28;20444;-75
2021/11/27 01:58:29;;;;;;;9.70;6.43;;;;;;;;;;5098634;28;20559;-75
2021/11/27 02:00:58;;;;;;;13.20;7.17;;;;;;;;;;5098963;28;20473;-75
2021/11/27 02:03:28;;;;;;;12.37;7.50;;;;;;;;;;5098709;28;20803;-75
2021/11/27 02:05:56;;;;;;;10.43;6.33;;;;;;;;;;5098382;28;20531;-74
2021/11/27 02:08:25;;;;;;;11.77;6.80;;;;;;;;;;5098634;28;20536;-75
2021/11/27 02:10:53;;;;;;;10.93;6.20;;;;;;;;;;5098612;28;20444;-72
2021/11/27 02:13:21;;;;;;;12.47;5.80;;;;;;;;;;5098865;28;20448;-74
2021/11/27 02:15:50;;;;;;;8.27;5.70;;;;;;;;;;5098680;28;20443;-73
2021/11/27 02:18:18;;;;;;;11.10;6.33;;;;;;;;;;5098577;28;20455;-73
2021/11/27 02:20:56;;;;;;;10.53;6.07;;;;;;;;;;5098229;28;20439;-73
2021/11/27 02:23:26;;;;;;;10.70;6.20;;;;;;;;;;5097659;28;20458;-74
2021/11/27 02:25:54;;;;;;;8.47;5.63;;;;;;;;;;5098477;28;20534;-73
2021/11/27 02:28:22;;;;;;;8.50;5.80;;;;;;;;;;5098313;28;20479;-73
2021/11/27 02:30:50;;;;;;;9.47;6.17;;;;;;;;;;5098366;28;20525;-73
2021/11/27 02:33:18;;;;;;;10.93;5.67;;;;;;;;;;5098401;28;20533;-73
2021/11/27 02:35:46;;;;;;;7.87;5.43;;;;;;;;;;5097813;28;20964;-73
2021/11/27 02:38:15;;;;;;;10.27;5.40;;;;;;;;;;5086120;28;20468;-73
2021/11/27 02:40:44;;;;;;;8.97;5.30;;;;;;;;;;5098499;28;20519;-73
2021/11/27 02:43:12;;;;;;;9.63;5.97;;;;;;;;;;5097998;28;20511;-73
2021/11/27 02:45:40;;;;;;;9.07;5.63;;;;;;;;;;5098200;28;20448;-72
2021/11/27 02:48:09;;;;;;;9.43;6.13;;;;;;;;;;5097798;28;20974;-73
2021/11/27 02:50:37;;;;;;;7.07;4.97;;;;;;;;;;5097956;28;20446;-73
2021/11/27 02:53:05;;;;;;;6.63;4.80;;;;;;;;;;5097686;28;20516;-73
2021/11/27 02:55:34;;;;;;;8.47;5.30;;;;;;;;;;5097785;28;20449;-73
2021/11/27 02:58:02;;;;;;;7.17;4.77;;;;;;;;;;5097593;28;20563;-73
2021/11/27 03:00:30;;;;;;;7.80;5.53;;;;;;;;;;5097987;28;20443;-74
2021/11/27 03:02:59;;;;;;;8.37;5.07;;;;;;;;;;5092375;28;20458;-74
2021/11/27 03:05:27;;;;;;;7.20;4.60;;;;;;;;;;5088176;28;20947;-75
2021/11/27 03:07:55;;;;;;;10.20;4.90;;;;;;;;;;5097222;28;20479;-75
2021/11/27 03:10:23;;;;;;;8.40;4.90;;;;;;;;;;5096347;28;20562;-73
2021/11/27 03:12:53;;;;;;;5.60;4.67;;;;;;;;;;5103465;28;20443;-73
2021/11/27 03:15:21;;;;;;;11.33;5.33;;;;;;;;;;5104704;28;20539;-74
2021/11/27 03:17:49;;;;;;;7.33;4.30;;;;;;;;;;5106006;28;20919;-74
2021/11/27 03:20:18;;;;;;;7.40;5.43;;;;;;;;;;5090424;28;20466;-73
2021/11/27 03:22:47;;;;;;;8.10;4.90;;;;;;;;;;5100500;28;20678;-74
2021/11/27 03:25:16;;;;;;;7.30;4.97;;;;;;;;;;5104339;28;20522;-73
2021/11/27 03:27:43;;;;;;;8.23;5.50;;;;;;;;;;5106327;28;20474;-74
2021/11/27 03:30:14;;;;;;;8.67;4.67;;;;;;;;;;5106151;28;20598;-74
2021/11/27 03:32:43;;;;;;;8.13;5.10;;;;;;;;;;5112021;28;20939;-73
2021/11/27 03:35:11;;;;;;;8.60;4.73;;;;;;;;;;5104232;28;20465;-74
2021/11/27 03:37:41;;;;;;;7.10;5.60;;;;;;;;;;5102228;28;20453;-75
2021/11/27 03:40:10;;;;;;;9.10;5.00;;;;;;;;;;5103245;28;20486;-74
2021/11/27 03:42:39;;;;;;;5.60;4.07;;;;;;;;;;5105500;28;20527;-74
2021/11/27 03:45:08;;;;;;;7.47;4.03;;;;;;;;;;5105498;28;20822;-74
2021/11/27 03:47:52;;;;;;;6.53;4.53;;;;;;;;;;5107078;28;20483;-74
2021/11/27 03:50:20;;;;;;;8.93;4.63;;;;;;;;;;5103230;28;20452;-73
2021/11/27 03:52:48;;;;;;;5.30;3.30;;;;;;;;;;5103927;28;20443;-74
2021/11/27 03:55:16;;;;;;;6.80;3.57;;;;;;;;;;5099903;28;20452;-74
2021/11/27 03:57:44;;;;;;;5.53;3.60;;;;;;;;;;5090802;28;20885;-74
2021/11/27 04:00:12;;;;;;;6.20;3.87;;;;;;;;;;5088360;28;20784;-75
2021/11/27 04:02:42;;;;;;;6.33;4.10;;;;;;;;;;5083069;28;20453;-73
2021/11/27 04:05:11;;;;;;;6.47;4.03;;;;;;;;;;5088523;28;21004;-74
2021/11/27 04:07:39;;;;;;;5.13;3.77;;;;;;;;;;5087513;28;20443;-73
2021/11/27 04:10:07;;;;;;;6.17;4.10;;;;;;;;;;5088599;28;20471;-74
2021/11/27 04:12:36;;;;;;;5.60;3.97;;;;;;;;;;5090092;28;20443;-74
2021/11/27 04:15:09;;;;;;;5.10;3.80;;;;;;;;;;5089414;28;20460;-73
2021/11/27 04:17:37;;;;;;;7.43;4.47;;;;;;;;;;5086754;28;20439;-73
2021/11/27 04:20:07;;;;;;;6.20;4.70;;;;;;;;;;5088219;28;20456;-74
2021/11/27 04:22:35;;;;;;;5.23;4.03;;;;;;;;;;5085174;28;20475;-73
2021/11/27 04:25:03;;;;;;;6.40;4.20;;;;;;;;;;5084359;28;20448;-73
2021/11/27 04:27:31;;;;;;;6.60;4.60;;;;;;;;;;5084864;28;20547;-74
2021/11/27 04:29:59;;;;;;;5.67;4.43;;;;;;;;;;5085756;28;20495;-74
2021/11/27 04:32:28;;;;;;;4.27;3.77;;;;;;;;;;5080594;28;20456;-74
2021/11/27 04:34:56;;;;;;;3.90;3.33;;;;;;;;;;5087030;28;20444;-74
2021/11/27 04:37:25;;;;;;;4.70;3.87;;;;;;;;;;5087540;28;20503;-74
2021/11/27 04:39:53;;;;;;;6.40;4.03;;;;;;;;;;5092128;28;20491;-73
2021/11/27 04:42:22;;;;;;;5.90;3.97;;;;;;;;;;5084193;28;22188;-74
2021/11/27 04:44:50;;;;;;;4.77;3.53;;;;;;;;;;5084581;28;20476;-74
2021/11/27 04:47:19;;;;;;;6.80;3.93;;;;;;;;;;5087567;28;20874;-74
2021/11/27 04:49:47;;;;;;;6.53;4.13;;;;;;;;;;5088071;28;20484;-74
2021/11/27 04:52:15;;;;;;;5.30;4.10;;;;;;;;;;5085689;28;20507;-74
2021/11/27 04:54:45;;;;;;;4.27;3.03;;;;;;;;;;5094636;28;20458;-74
2021/11/27 04:57:13;;;;;;;5.33;3.43;;;;;;;;;;5097889;28;20460;-73
2021/11/27 04:59:41;;;;;;;7.33;3.30;;;;;;;;;;5093888;28;20459;-73
2021/11/27 05:02:08;;;;;;;4.07;3.03;;;;;;;;;;5100071;28;20876;-73
2021/11/27 05:04:37;;;;;;;4.00;3.30;;;;;;;;;;5099859;28;20455;-74
2021/11/27 05:07:05;;;;;;;3.20;2.87;;;;;;;;;;5100204;28;20455;-73
2021/11/27 05:09:34;;;;;;;5.13;3.23;;;;;;;;;;5099864;28;20489;-73
2021/11/27 05:12:03;;;;;;;5.10;3.13;;;;;;;;;;5100556;28;20443;-73
2021/11/27 05:14:31;;;;;;;3.77;3.10;;;;;;;;;;5087612;28;20456;-74
2021/11/27 05:16:59;;;;;;;7.13;3.47;;;;;;;;;;5099995;28;20474;-73
2021/11/27 05:19:27;;;;;;;3.93;3.07;;;;;;;;;;5099190;28;20464;-74
2021/11/27 05:21:55;;;;;;;4.43;2.87;;;;;;;;;;5095122;28;20456;-74
2021/11/27 05:24:23;;;;;;;4.93;3.23;;;;;;;;;;5098622;28;20455;-74
2021/11/27 05:26:51;;;;;;;3.73;3.00;;;;;;;;;;5099799;28;20455;-73
2021/11/27 05:29:21;;;;;;;4.40;3.23;;;;;;;;;;5091434;28;20490;-74
2021/11/27 05:31:53;;;;;;;5.03;3.00;;;;;;;;;;5099279;28;20446;-73
2021/11/27 05:34:32;;;;;;;7.43;4.13;;;;;;;;;;5099284;28;20460;-74
2021/11/27 05:37:02;;;;;;;6.27;3.53;;;;;;;;;;5099169;28;20467;-74
2021/11/27 05:39:30;;;;;;;4.87;3.10;;;;;;;;;;5099538;28;20459;-74
2021/11/27 05:41:58;;;;;;;4.73;3.50;;;;;;;;;;5099155;28;20831;-73
2021/11/27 05:44:27;;;;;;;4.13;3.10;;;;;;;;;;5093306;28;20484;-73
2021/11/27 05:46:55;;;;;;;4.63;3.20;;;;;;;;;;5094697;28;20454;-73
2021/11/27 05:49:23;;;;;;;3.43;2.87;;;;;;;;;;5096729;28;20483;-73
2021/11/27 05:51:51;;;;;;;2.87;2.60;;;;;;;;;;5083729;28;20455;-73
2021/11/27 05:54:19;;;;;;;3.63;2.93;;;;;;;;;;5098014;28;20812;-74
2021/11/27 05:56:47;;;;;;;4.80;2.90;;;;;;;;;;5098864;28;20446;-73
2021/11/27 05:59:15;;;;;;;3.87;2.93;;;;;;;;;;5097993;28;20462;-74
2021/11/27 06:01:44;;;;;;;4.97;3.17;;;;;;;;;;5098099;28;20439;-73
2021/11/27 06:04:12;;;;;;;4.10;3.13;;;;;;;;;;5096603;28;20826;-74
2021/11/27 06:06:40;;;;;;;4.60;2.73;;;;;;;;;;5094438;28;20953;-74
2021/11/27 06:09:08;;;;;;;3.70;2.83;;;;;;;;;;5097408;28;20456;-74
2021/11/27 06:11:36;;;;;;;4.07;2.70;;;;;;;;;;5097852;28;20558;-74
2021/11/27 06:14:04;;;;;;;3.83;3.13;;;;;;;;;;5095667;28;20860;-74
2021/11/27 06:16:37;;;;;;;5.17;2.87;;;;;;;;;;5093291;28;20934;-74
2021/11/27 06:19:06;;;;;;;4.07;3.30;;;;;;;;;;5098001;28;20470;-73
2021/11/27 06:21:34;;;;;;;4.13;2.93;;;;;;;;;;5091741;28;20534;-74
2021/11/27 06:24:08;;;;;;;4.43;3.27;;;;;;;;;;5090799;28;20484;-74
2021/11/27 06:26:36;;;;;;;2.83;2.10;;;;;;;;;;5098613;28;20461;-73
2021/11/27 06:29:04;;;;;;;3.73;2.67;;;;;;;;;;5098464;28;20538;-74
2021/11/27 06:31:32;;;;;;;2.70;2.43;;;;;;;;;;5098510;28;20507;-73
2021/11/27 06:34:01;;;;;;;3.40;2.80;;;;;;;;;;5095579;28;20471;-74
2021/11/27 06:36:32;;;;;;;4.53;3.50;;;;;;;;;;5085172;28;21961;-74
2021/11/27 06:39:00;;;;;;;3.93;2.60;;;;;;;;;;5102676;28;20485;-73
2021/11/27 06:41:28;;;;;;;3.03;2.73;;;;;;;;;;5102539;28;20442;-74
2021/11/27 06:43:56;;;;;;;2.93;2.63;;;;;;;;;;5107598;28;20484;-74
2021/11/27 06:46:24;;;;;;;3.40;2.80;;;;;;;;;;5097289;28;20474;-74
2021/11/27 06:48:52;;;;;;;4.83;2.97;;;;;;;;;;5084769;28;20464;-74
2021/11/27 06:51:19;;;;;;;3.13;2.20;;;;;;;;;;5083198;28;20486;-74
2021/11/27 06:53:49;;;;;;;3.60;2.67;;;;;;;;;;5083603;28;20448;-73
2021/11/27 06:56:17;;;;;;;2.40;2.20;;;;;;;;;;5088757;28;20946;-74
2021/11/27 06:58:45;;;;;;;4.80;2.43;;;;;;;;;;5095713;28;20459;-73
2021/11/27 07:01:13;;;;;;;5.40;2.40;;;;;;;;;;5096364;28;20450;-74
2021/11/27 07:03:41;;;;;;;4.93;3.90;;;;;;;;;;5096165;28;20797;-74
2021/11/27 07:06:09;;;;;;;3.70;2.73;;;;;;;;;;5096346;28;20822;-73
2021/11/27 07:08:37;;;;;;;2.30;1.93;;;;;;;;;;5097494;28;20467;-73
2021/11/27 07:11:06;;;;;;;3.53;2.70;;;;;;;;;;5080461;28;21018;-73
2021/11/27 07:13:35;;;;;;;3.13;2.13;;;;;;;;;;5086500;28;20466;-74
2021/11/27 07:16:03;;;;;;;3.43;2.60;;;;;;;;;;5097812;28;20448;-74
2021/11/27 07:18:31;;;;;;;2.93;2.37;;;;;;;;;;5096466;28;20992;-73
2021/11/27 07:20:59;;;;;;;3.23;2.93;;;;;;;;;;5092535;28;20519;-74
2021/11/27 07:23:27;;;;;;;3.33;2.40;;;;;;;;;;5093443;28;20486;-74
2021/11/27 07:25:55;;;;;;;4.77;2.60;;;;;;;;;;5096979;28;20444;-74
2021/11/27 07:28:25;;;;;;;4.13;2.57;;;;;;;;;;5096634;28;20451;-74
2021/11/27 07:30:53;;;;;;;4.90;2.93;;;;;;;;;;5096811;28;21053;-74
2021/11/27 07:33:21;;;;;;;3.07;2.50;;;;;;;;;;5096089;28;20799;-74
2021/11/27 07:35:50;;;;;;;3.13;2.67;;;;;;;;;;5093193;28;20447;-71
2021/11/27 07:38:18;;;;;;;3.53;2.57;;;;;;;;;;5091273;28;20990;-71
2021/11/27 07:40:46;;;;;;;3.00;2.50;;;;;;;;;;5097255;28;20436;-71
2021/11/27 07:43:14;;;;;;;4.40;2.37;;;;;;;;;;5090494;28;20479;-76
2021/11/27 07:45:43;;;;;;;5.27;2.13;;;;;;;;;;5093976;28;20474;-77
2021/11/27 07:48:11;;;;;;;3.87;2.70;;;;;;;;;;5087771;28;20476;-75
2021/11/27 07:50:39;;;;;;;3.17;2.50;;;;;;;;;;5092414;28;20483;-77
2021/11/27 07:53:08;;;;;;;4.40;3.07;;;;;;;;;;5096978;28;20444;-77
2021/11/27 07:55:36;;;;;;;3.97;2.93;;;;;;;;;;5095207;28;20462;-77
2021/11/27 07:58:04;;;;;;;3.87;2.10;;;;;;;;;;5097035;28;20478;-77
2021/11/27 08:00:32;;;;;;;4.10;2.57;;;;;;;;;;5096648;28;20444;-77
2021/11/27 08:03:01;;;;;;;3.97;2.47;;;;;;;;;;5096731;28;20439;-77
2021/11/27 08:05:29;;;;;;;3.67;2.40;;;;;;;;;;5105004;28;20438;-76
2021/11/27 08:07:57;;;;;;;5.63;2.93;;;;;;;;;;5097207;28;20524;-75
2021/11/27 08:10:25;;;;;;;4.07;3.20;;;;;;;;;;5104905;28;20483;-73
2021/11/27 08:12:54;;;;;;;3.20;2.70;;;;;;;;;;5107047;28;20441;-75
2021/11/27 08:15:22;;;;;;;3.97;2.97;;;;;;;;;;5105831;28;20531;-75
2021/11/27 08:17:50;;;;;;;3.20;2.80;;;;;;;;;;5103133;28;20813;-75
2021/11/27 08:20:20;;;;;;;5.90;3.17;;;;;;;;;;5085606;28;20448;-74
2021/11/27 08:22:49;;;;;;;3.17;2.87;;;;;;;;;;5086685;28;21087;-75
2021/11/27 08:25:17;;;;;;;5.10;3.77;;;;;;;;;;5085639;28;20487;-75
2021/11/27 08:27:44;;;;;;;3.93;3.20;;;;;;;;;;5087429;28;20446;-75
2021/11/27 08:30:13;;;;;;;2.30;2.10;;;;;;;;;;5087123;28;20440;-75
2021/11/27 08:32:41;;;;;;;4.27;2.73;;;;;;;;;;5090258;28;20433;-76
2021/11/27 08:35:09;;;;;;;3.60;2.30;;;;;;;;;;5085377;28;20551;-75
2021/11/27 08:37:39;;;;;;;2.97;2.53;;;;;;;;;;5088977;28;20440;-75
2021/11/27 08:40:07;;;;;;;3.07;2.43;;;;;;;;;;5092291;28;20445;-75
2021/11/27 08:42:35;;;;;;;4.03;2.30;;;;;;;;;;5089942;28;20459;-74
2021/11/27 08:45:04;;;;;;;3.10;2.73;;;;;;;;;;5087121;28;20472;-75
2021/11/27 08:47:32;;;;;;;2.93;2.40;;;;;;;;;;5087958;28;20428;-75
2021/11/27 08:50:00;;;;;;;3.87;2.40;;;;;;;;;;5088513;28;20505;-75
2021/11/27 08:52:28;;;;;;;3.10;2.33;;;;;;;;;;5087292;28;20515;-75
2021/11/27 08:54:58;;;;;;;4.20;2.23;;;;;;;;;;5088512;28;20207;-74
2021/11/27 08:57:26;;;;;;;4.70;2.23;;;;;;;;;;5086835;28;20216;-75
2021/11/27 08:59:54;;;;;;;4.43;2.50;;;;;;;;;;5087606;28;20840;-75
2021/11/27 09:02:22;;;;;;;2.63;2.00;;;;;;;;;;5092302;28;20257;-75
2021/11/27 09:04:50;;;;;;;3.33;2.37;;;;;;;;;;5092909;28;20258;-76
2021/11/27 09:07:19;;;;;;;4.13;2.73;;;;;;;;;;5083926;28;20198;-76
2021/11/27 09:09:47;;;;;;;8.03;2.50;;;;;;;;;;5088788;28;20217;-76
2021/11/27 09:12:19;;;;;;;5.73;2.40;;;;;;;;;;5088632;28;20246;-76
2021/11/27 09:14:47;;;;;;;2.83;2.63;;;;;;;;;;5087454;28;20284;-76
2021/11/27 09:17:15;;;;;;;3.80;2.73;;;;;;;;;;5087851;28;20212;-76
2021/11/27 09:19:44;;;;;;;3.87;3.00;;;;;;;;;;5088702;28;20574;-76
2021/11/27 09:22:12;;;;;;;5.63;2.47;;;;;;;;;;5086479;28;20197;-76
2021/11/27 09:24:42;;;;;;;3.70;2.20;;;;;;;;;;5086797;28;20231;-76
2021/11/27 09:27:10;;;;;;;4.17;2.80;;;;;;;;;;5086490;28;20285;-76
2021/11/27 09:29:40;;;;;;;6.90;4.13;;;;;;;;;;5089415;28;20301;-75
2021/11/27 09:32:08;;;;;;;4.53;2.60;;;;;;;;;;5087292;28;20227;-76
2021/11/27 09:34:36;;;;;;;2.63;2.17;;;;;;;;;;5086544;28;20661;-76
2021/11/27 09:37:05;;;;;;;2.50;2.30;;;;;;;;;;5087377;28;20201;-76
2021/11/27 09:39:34;;;;;;;3.67;2.33;;;;;;;;;;5090505;28;20253;-76
2021/11/27 09:42:02;;;;;;;3.73;2.37;;;;;;;;;;5086424;28;20270;-75
2021/11/27 09:44:34;;;;;;;4.23;2.37;;;;;;;;;;5087168;28;20287;-75
2021/11/27 09:47:04;;;;;;;5.13;2.97;;;;;;;;;;5091927;28;20280;-75
2021/11/27 09:49:32;;;;;;;8.40;3.70;;;;;;;;;;5087391;28;20228;-76
2021/11/27 09:52:00;;;;;;;4.47;3.03;;;;;;;;;;5084950;28;20214;-77
2021/11/27 09:54:28;;;;;;;13.77;7.17;;;;;;;;;;5081223;28;20203;-76
2021/11/27 09:56:58;;;;;;;3.73;2.90;;;;;;;;;;5087921;28;20211;-76
2021/11/27 09:59:26;;;;;;;5.77;3.43;;;;;;;;;;5084399;28;20223;-76
2021/11/27 10:01:56;;;;;;;6.60;3.20;;;;;;;;;;5081414;28;20206;-77
2021/11/27 10:04:27;;;;;;;4.33;2.97;;;;;;;;;;5082671;28;20276;-76
2021/11/27 10:06:58;;;;;;;4.30;2.73;;;;;;;;;;5081312;28;20206;-76
2021/11/27 10:09:26;;;;;;;5.63;3.50;;;;;;;;;;5090814;28;20317;-75
2021/11/27 10:11:54;;;;;;;4.17;2.80;;;;;;;;;;5086869;28;20307;-73
2021/11/27 10:14:22;;;;;;;5.00;3.07;;;;;;;;;;5106620;28;20193;-78
2021/11/27 10:17:05;;;;;;;3.10;2.20;;;;;;;;;;5107469;28;20204;-77
2021/11/27 10:19:47;;;;;;;3.47;2.47;;;;;;;;;;5098433;28;20227;-77
2021/11/27 10:22:17;;;;;;;2.20;2.00;;;;;;;;;;5103841;28;20558;-77
2021/11/27 10:24:47;;;;;;;4.67;2.40;;;;;;;;;;5107221;28;20216;-77
2021/11/27 10:27:23;;;;;;;2.80;2.23;;;;;;;;;;5108168;28;20197;-78
2021/11/27 10:30:05;;;;;;;3.50;2.60;;;;;;;;;;5107989;28;20220;-77
2021/11/27 10:32:35;;;;;;;3.20;2.60;;;;;;;;;;5102917;28;20556;-78
2021/11/27 10:35:06;;;;;;;3.43;2.27;;;;;;;;;;5107387;28;20202;-79
2021/11/27 10:37:38;;;;;;;3.83;2.10;;;;;;;;;;5100288;28;20205;-77
2021/11/27 10:40:07;;;;;;;3.37;1.90;;;;;;;;;;5100512;28;20205;-78
2021/11/27 10:42:36;;;;;;;3.40;2.30;;;;;;;;;;5105114;28;20203;-76
2021/11/27 10:45:11;;;;;;;2.77;1.83;;;;;;;;;;5106309;28;20276;-78
2021/11/27 10:47:40;;;;;;;4.00;2.17;;;;;;;;;;5104108;28;20194;-79
2021/11/27 10:50:10;;;;;;;2.73;2.20;;;;;;;;;;5102400;28;20201;-78
2021/11/27 10:52:38;;;;;;;3.53;2.30;;;;;;;;;;5106099;28;20256;-76
2021/11/27 10:55:17;;;;;;;4.53;2.23;;;;;;;;;;5103813;28;20208;-76
2021/11/27 10:57:45;;;;;;;2.37;2.13;;;;;;;;;;5105203;28;20204;-77
2021/11/27 11:00:27;;;;;;;4.07;2.00;;;;;;;;;;5101288;28;20201;-75
2021/11/27 11:02:55;;;;;;;3.30;2.10;;;;;;;;;;5101970;28;20246;-75
2021/11/27 11:05:31;;;;;;;3.37;2.40;;;;;;;;;;5105461;28;20202;-79
2021/11/27 11:08:00;;;;;;;2.60;1.90;;;;;;;;;;5105977;28;20216;-79
2021/11/27 11:10:30;;;;;;;1.90;1.77;;;;;;;;;;5103149;28;20194;-76
2021/11/27 11:12:59;;;;;;;4.23;2.10;;;;;;;;;;5097485;28;20275;-78
2021/11/27 11:15:28;;;;;;;3.90;2.10;;;;;;;;;;5087320;28;20202;-80
2021/11/27 11:18:10;;;;;;;3.73;2.10;;;;;;;;;;5094593;28;20206;-77
2021/11/27 11:20:43;;;;;;;3.67;2.13;;;;;;;;;;5095255;28;20207;-78
2021/11/27 11:23:12;;;;;;;4.47;2.03;;;;;;;;;;5094225;28;20201;-79
2021/11/27 11:25:51;;;;;;;1.73;1.57;;;;;;;;;;5097194;28;20284;-77
2021/11/27 11:28:19;;;;;;;3.37;2.03;;;;;;;;;;5097233;28;20244;-79
2021/11/27 11:30:48;;;;;;;5.30;2.17;;;;;;;;;;5097332;28;20285;-78
2021/11/27 11:33:25;;;;;;;2.23;1.40;;;;;;;;;;5088008;28;20221;-77
2021/11/27 11:35:54;;;;;;;2.77;1.90;;;;;;;;;;5096864;28;20662;-78
2021/11/27 11:38:22;;;;;;;2.67;1.67;;;;;;;;;;5094102;28;20359;-76
2021/11/27 11:40:52;;;;;;;3.17;2.20;;;;;;;;;;5086945;28;20201;-79
2021/11/27 11:43:20;;;;;;;3.47;1.97;;;;;;;;;;5096827;28;20282;-80
2021/11/27 11:45:48;;;;;;;4.87;1.60;;;;;;;;;;5104311;28;20271;-77
2021/11/27 11:48:20;;;;;;;2.57;1.67;;;;;;;;;;5086701;28;20229;-76
2021/11/27 11:50:49;;;;;;;2.20;1.60;;;;;;;;;;5088263;28;20205;-77
2021/11/27 11:53:26;;;;;;;10.63;6.20;;;;;;;;;;5085991;28;20253;-74
2021/11/27 11:55:55;;;;;;;10.43;3.93;;;;;;;;;;5100664;28;20205;-76
2021/11/27 11:58:27;;;;;;;5.40;2.50;;;;;;;;;;5097213;28;20281;-74
2021/11/27 12:00:56;;;;;;;3.17;2.70;;;;;;;;;;5099383;28;20201;-76
2021/11/27 12:03:24;;;;;;;2.07;1.83;;;;;;;;;;5095754;28;20194;-78
2021/11/27 12:06:02;;;;;;;3.13;2.40;;;;;;;;;;5083825;28;20208;-78
2021/11/27 12:08:51;;;;;;;4.53;2.40;;;;;;;;;;5099920;28;20232;-74
2021/11/27 12:11:42;;;;;;;4.40;2.17;;;;;;;;;;5092186;28;20197;-74
2021/11/27 12:14:26;;;;;;;2.50;1.90;;;;;;;;;;5089779;28;20226;-74
2021/11/27 12:17:04;;;;;;;3.87;1.90;;;;;;;;;;5084156;28;20197;-73
2021/11/27 12:19:36;;;;;;;3.53;2.20;;;;;;;;;;5087234;28;20221;-73
2021/11/27 12:22:22;;;;;;;2.83;2.20;;;;;;;;;;5087199;28;20224;-74
2021/11/27 12:25:03;;;;;;;4.87;2.07;;;;;;;;;;5081725;28;20270;-73
2021/11/27 12:27:32;;;;;;;5.53;2.70;;;;;;;;;;5083762;28;20216;-73
2021/11/27 12:30:05;;;;;;;6.50;2.23;;;;;;;;;;5088236;28;20218;-74
2021/11/27 12:32:38;;;;;;;4.10;2.30;;;;;;;;;;5084017;28;20202;-73
2021/11/27 12:35:21;;;;;;;4.03;3.00;;;;;;;;;;5086111;28;20237;-74
2021/11/27 12:37:49;;;;;;;6.97;2.97;;;;;;;;;;5081503;28;20238;-73
2021/11/27 12:40:31;;;;;;;3.20;2.60;;;;;;;;;;5088741;28;20369;-74
2021/11/27 12:43:07;;;;;;;5.20;2.43;;;;;;;;;;5086622;28;20198;-74
2021/11/27 12:45:36;;;;;;;4.57;2.77;;;;;;;;;;5086943;28;20780;-77
2021/11/27 12:48:19;;;;;;;8.30;2.67;;;;;;;;;;5089078;28;20237;-76
2021/11/27 12:51:08;;;;;;;8.30;2.93;;;;;;;;;;5088284;28;20616;-77
2021/11/27 12:53:36;;;;;;;2.90;1.77;;;;;;;;;;5085160;28;20230;-79
2021/11/27 12:56:04;;;;;;;4.90;1.57;;;;;;;;;;5086536;28;20212;-79
2021/11/27 12:58:40;;;;;;;2.30;1.70;;;;;;;;;;5088258;28;20249;-79
2021/11/27 13:01:08;;;;;;;4.43;1.83;;;;;;;;;;5083340;28;20229;-78
2021/11/27 13:03:36;;;;;;;3.40;1.30;;;;;;;;;;5086993;28;20197;-79
2021/11/27 13:06:06;;;;;;;3.33;1.30;;;;;;;;;;5086526;28;20212;-78
2021/11/27 13:08:36;;;;;;;2.00;1.10;;;;;;;;;;5088699;28;20213;-78
2021/11/27 13:11:10;;;;;;;0.87;0.87;;;;;;;;;;5085817;28;20206;-78
2021/11/27 13:13:39;;;;;;;3.47;1.27;;;;;;;;;;5086595;28;20214;-78
2021/11/27 13:16:08;;;;;;;2.33;1.40;;;;;;;;;;5087148;28;20242;-79
2021/11/27 13:18:36;;;;;;;3.13;1.57;;;;;;;;;;5084169;28;20260;-78
2021/11/27 13:21:07;;;;;;;1.27;1.17;;;;;;;;;;5093839;28;20217;-76
2021/11/27 13:23:36;;;;;;;2.30;0.80;;;;;;;;;;5099078;28;20205;-76
2021/11/27 13:26:05;;;;;;;2.50;1.00;;;;;;;;;;5097048;28;20208;-76
2021/11/27 13:28:35;;;;;;;1.83;1.40;;;;;;;;;;5098432;28;20623;-75
2021/11/27 13:31:04;;;;;;;1.33;0.67;;;;;;;;;;5094292;28;20202;-75
2021/11/27 13:33:47;;;;;;;1.17;0.70;;;;;;;;;;5091683;28;20221;-75
2021/11/27 13:36:25;;;;;;;3.97;1.23;;;;;;;;;;5099439;28;20206;-76
2021/11/27 13:38:53;;;;;;;3.63;0.90;;;;;;;;;;5096752;28;20225;-76
2021/11/27 13:41:22;;;;;;;2.80;1.23;;;;;;;;;;5099190;28;20572;-75
2021/11/27 13:43:50;;;;;;;2.60;1.00;;;;;;;;;;5097103;28;20235;-75
2021/11/27 13:46:18;;;;;;;3.07;1.10;;;;;;;;;;5099192;28;20209;-75
2021/11/27 13:48:46;;;;;;;3.20;1.40;;;;;;;;;;5098808;28;20232;-76
2021/11/27 13:51:19;;;;;;;1.97;1.10;;;;;;;;;;5098627;28;20288;-75
2021/11/27 13:53:49;;;;;;;2.73;1.20;;;;;;;;;;5094295;28;20612;-77
2021/11/27 13:56:17;;;;;;;1.40;1.10;;;;;;;;;;5083968;28;20220;-78
2021/11/27 13:58:52;;;;;;;1.57;1.13;;;;;;;;;;5084301;28;20576;-77
2021/11/27 14:01:20;;;;;;;1.37;1.07;;;;;;;;;;5092056;28;20657;-75
2021/11/27 14:03:49;;;;;;;2.03;1.93;;;;;;;;;;5083039;28;20205;-75
2021/11/27 14:06:17;;;;;;;1.57;0.97;;;;;;;;;;5087813;28;20703;-79
2021/11/27 14:09:02;;;;;;;2.63;0.90;;;;;;;;;;5085097;28;20222;-75
2021/11/27 14:11:31;;;;;;;2.47;1.20;;;;;;;;;;5085574;28;20807;-78
2021/11/27 14:14:03;;;;;;;2.10;1.07;;;;;;;;;;5086095;28;20221;-77
2021/11/27 14:16:31;;;;;;;2.60;1.13;;;;;;;;;;5087283;28;20218;-76
2021/11/27 14:19:09;;;;;;;4.27;1.37;;;;;;;;;;5083624;28;20225;-76
2021/11/27 14:21:38;;;;;;;2.47;0.87;;;;;;;;;;5098702;28;20197;-75
2021/11/27 14:24:14;;;;;;;3.60;1.40;;;;;;;;;;5107415;28;20193;-75
2021/11/27 14:26:42;;;;;;;5.93;1.00;;;;;;;;;;5104540;28;20203;-75
2021/11/27 14:29:17;;;;;;;1.30;1.07;;;;;;;;;;5105764;28;20280;-75
2021/11/27 14:31:45;;;;;;;1.23;0.93;;;;;;;;;;5104272;28;20347;-76
2021/11/27 14:34:18;;;;;;;2.97;1.00;;;;;;;;;;5094341;28;20224;-77
2021/11/27 14:36:53;;;;;;;2.03;1.07;;;;;;;;;;5102406;28;20637;-79
2021/11/27 14:39:24;;;;;;;1.77;1.33;;;;;;;;;;5101413;28;20608;-78
2021/11/27 14:42:01;;;;;;;2.30;1.00;;;;;;;;;;5106897;28;20197;-78
2021/11/27 14:44:30;;;;;;;1.33;1.07;;;;;;;;;;5105769;28;20221;-77
2021/11/27 14:47:05;;;;;;;32.07;13.13;;;;;;;;;;5104451;28;20209;-72
2021/11/27 14:49:35;;;;;;;430.20;255.13;;;;;;;;;;5100708;28;20249;-75
2021/11/27 14:52:05;;;;;;;110.83;59.90;;;;;;;;;;5096842;28;20712;-78
2021/11/27 14:54:36;;;;;;;11.77;7.47;;;;;;;;;;5101912;28;20677;-76
2021/11/27 14:57:05;;;;;;;1.77;1.60;;;;;;;;;;5105960;28;20205;-74